createdAt,value
2024-01-14T00:00:21.161Z,38.99
2024-01-14T00:02:48.750Z,38.97
2024-01-14T00:05:16.383Z,37.87
2024-01-14T00:07:43.570Z,38.79
2024-01-14T00:10:11.543Z,38.20
2024-01-14T00:12:38.885Z,38.57
2024-01-14T00:15:06.533Z,38.68
2024-01-14T00:17:34.957Z,38.45
2024-01-14T00:20:04.257Z,38.49
2024-01-14T00:22:31.988Z,38.31
2024-01-14T00:24:59.465Z,38.34
2024-01-14T00:27:26.725Z,38.48
2024-01-14T00:29:59.279Z,38.78
2024-01-14T00:32:27.114Z,38.56
2024-01-14T00:34:54.435Z,38.84
2024-01-14T00:37:21.834Z,37.69
2024-01-14T00:39:49.368Z,38.08
2024-01-14T00:42:17.561Z,37.56
2024-01-14T00:44:44.787Z,37.86
2024-01-14T00:47:12.286Z,38.19
2024-01-14T00:49:39.634Z,38.74
2024-01-14T00:52:06.982Z,38.48
2024-01-14T00:54:34.575Z,38.60
2024-01-14T00:57:02.132Z,38.92
2024-01-14T00:59:29.334Z,39.02
2024-01-14T01:01:56.749Z,39.18
2024-01-14T01:04:24.098Z,39.10
2024-01-14T01:06:53.702Z,39.05
2024-01-14T01:09:21.684Z,38.90
2024-01-14T01:11:49.082Z,39.17
2024-01-14T01:14:16.519Z,39.08
2024-01-14T01:16:43.983Z,39.04
2024-01-14T01:19:11.389Z,39.08
2024-01-14T01:21:38.804Z,39.07
2024-01-14T01:24:06.358Z,39.30
2024-01-14T01:26:33.590Z,39.05
2024-01-14T01:29:02.674Z,38.85
2024-01-14T01:31:35.552Z,38.87
2024-01-14T01:34:10.858Z,38.20
2024-01-14T01:36:38.406Z,37.94
2024-01-14T01:39:05.670Z,37.57
2024-01-14T01:41:32.968Z,37.83
2024-01-14T01:44:00.529Z,38.44
2024-01-14T01:46:27.825Z,38.20
2024-01-14T01:48:55.229Z,37.53
2024-01-14T01:51:22.938Z,37.90
2024-01-14T01:53:50.292Z,38.22
2024-01-14T01:56:17.656Z,38.51
2024-01-14T01:58:45.296Z,38.39
2024-01-14T02:01:12.483Z,38.13
2024-01-14T02:03:40.069Z,38.46
2024-01-14T02:06:07.767Z,39.34
2024-01-14T02:08:34.937Z,39.36
2024-01-14T02:11:02.172Z,39.53
2024-01-14T02:13:29.796Z,40.25
2024-01-14T02:15:57.088Z,39.76
2024-01-14T02:18:24.469Z,40.16
2024-01-14T02:20:52.138Z,38.94
2024-01-14T02:23:21.022Z,39.41
2024-01-14T02:25:48.286Z,40.57
2024-01-14T02:28:21.241Z,40.60
2024-01-14T02:30:48.671Z,40.62
2024-01-14T02:33:17.850Z,39.72
2024-01-14T02:35:45.679Z,38.97
2024-01-14T02:38:13.057Z,39.22
2024-01-14T02:40:41.162Z,39.14
2024-01-14T02:43:08.329Z,39.09
2024-01-14T02:45:35.579Z,39.24
2024-01-14T02:48:03.369Z,38.34
2024-01-14T02:50:30.618Z,38.19
2024-01-14T02:52:57.840Z,37.89
2024-01-14T02:55:25.381Z,38.61
2024-01-14T02:57:53.193Z,38.51
2024-01-14T03:00:20.421Z,38.67
2024-01-14T03:02:48.035Z,38.88
2024-01-14T03:05:15.325Z,38.73
2024-01-14T03:07:42.535Z,38.79
2024-01-14T03:10:10.082Z,39.22
2024-01-14T03:12:37.359Z,38.70
2024-01-14T03:15:04.681Z,38.44
2024-01-14T03:17:32.311Z,39.07
2024-01-14T03:19:59.654Z,39.46
2024-01-14T03:22:26.933Z,39.25
2024-01-14T03:24:54.375Z,38.91
2024-01-14T03:27:21.565Z,38.23
2024-01-14T03:29:48.875Z,37.30
2024-01-14T03:32:16.395Z,36.24
2024-01-14T03:34:43.926Z,35.67
2024-01-14T03:37:11.264Z,36.43
2024-01-14T03:39:38.753Z,37.98
2024-01-14T03:42:06.045Z,39.12
2024-01-14T03:44:33.242Z,39.74
2024-01-14T03:47:00.840Z,39.63
2024-01-14T03:49:28.225Z,39.90
2024-01-14T03:51:55.493Z,40.06
2024-01-14T03:54:23.129Z,39.67
2024-01-14T03:56:50.421Z,39.87
2024-01-14T03:59:17.636Z,39.91
2024-01-14T04:01:45.215Z,39.12
2024-01-14T04:04:12.964Z,38.99
2024-01-14T04:06:40.284Z,38.47
2024-01-14T04:09:07.651Z,38.89
2024-01-14T04:11:36.823Z,38.85
2024-01-14T04:14:04.203Z,38.67
2024-01-14T04:16:41.006Z,38.85
2024-01-14T04:19:08.835Z,38.72
2024-01-14T04:21:36.195Z,39.08
2024-01-14T04:24:03.992Z,38.94
2024-01-14T04:26:31.635Z,39.12
2024-01-14T04:28:59.291Z,39.06
2024-01-14T04:31:26.737Z,39.14
2024-01-14T04:33:54.376Z,38.77
2024-01-14T04:36:21.739Z,39.15
2024-01-14T04:38:48.962Z,39.10
2024-01-14T04:41:16.689Z,38.00
2024-01-14T04:43:43.891Z,38.66
2024-01-14T04:46:11.798Z,37.89
2024-01-14T04:48:39.521Z,37.15
2024-01-14T04:51:06.998Z,37.89
2024-01-14T04:53:34.343Z,38.33
2024-01-14T04:56:03.981Z,37.90
2024-01-14T04:58:31.202Z,38.13
2024-01-14T05:00:58.411Z,38.53
2024-01-14T05:03:26.334Z,38.57
2024-01-14T05:05:54.442Z,38.18
2024-01-14T05:08:22.409Z,37.68
2024-01-14T05:10:49.891Z,38.27
2024-01-14T05:13:17.134Z,38.25
2024-01-14T05:15:44.373Z,38.48
2024-01-14T05:18:12.107Z,38.63
2024-01-14T05:20:40.513Z,37.56
2024-01-14T05:23:09.218Z,38.08
2024-01-14T05:25:37.063Z,38.32
2024-01-14T05:28:04.326Z,37.82
2024-01-14T05:30:31.685Z,38.53
2024-01-14T05:32:59.393Z,38.18
2024-01-14T05:35:26.609Z,37.60
2024-01-14T05:37:53.980Z,37.62
2024-01-14T05:40:21.561Z,37.49
2024-01-14T05:42:48.721Z,37.19
2024-01-14T05:45:16.091Z,38.15
2024-01-14T05:47:43.781Z,37.22
2024-01-14T05:50:11.877Z,36.16
2024-01-14T05:52:39.119Z,37.16
2024-01-14T05:55:06.785Z,37.67
2024-01-14T05:57:34.084Z,37.90
2024-01-14T06:00:01.636Z,37.72
2024-01-14T06:02:33.769Z,38.18
2024-01-14T06:05:01.435Z,38.18
2024-01-14T06:07:28.745Z,38.27
2024-01-14T06:09:56.343Z,38.26
2024-01-14T06:12:23.914Z,38.39
2024-01-14T06:14:51.148Z,38.23
2024-01-14T06:17:18.394Z,37.14
2024-01-14T06:19:45.965Z,37.84
2024-01-14T06:22:13.671Z,38.13
2024-01-14T06:24:41.006Z,38.15
2024-01-14T06:27:08.557Z,38.23
2024-01-14T06:29:35.837Z,37.82
2024-01-14T06:32:03.134Z,38.02
2024-01-14T06:34:30.737Z,38.83
2024-01-14T06:36:57.921Z,38.91
2024-01-14T06:39:25.149Z,38.48
2024-01-14T06:41:52.965Z,38.68
2024-01-14T06:44:20.285Z,38.68
2024-01-14T06:46:47.753Z,37.75
2024-01-14T06:49:15.373Z,38.35
2024-01-14T06:51:43.711Z,38.77
2024-01-14T06:54:11.358Z,39.14
2024-01-14T06:56:45.380Z,38.77
2024-01-14T06:59:13.515Z,38.53
2024-01-14T07:01:40.983Z,38.39
2024-01-14T07:04:08.369Z,38.26
2024-01-14T07:06:35.605Z,37.83
2024-01-14T07:09:03.131Z,38.47
2024-01-14T07:11:30.416Z,38.57
2024-01-14T07:13:59.635Z,38.58
2024-01-14T07:16:27.221Z,38.48
2024-01-14T07:18:54.975Z,38.25
2024-01-14T07:21:24.254Z,37.60
2024-01-14T07:23:51.917Z,38.44
2024-01-14T07:26:22.558Z,38.28
2024-01-14T07:28:54.286Z,37.95
2024-01-14T07:31:23.253Z,38.05
2024-01-14T07:33:51.879Z,38.20
2024-01-14T07:36:21.089Z,37.53
2024-01-14T07:38:49.044Z,38.25
2024-01-14T07:41:17.061Z,37.63
2024-01-14T07:43:46.372Z,38.52
2024-01-14T07:46:14.723Z,38.51
2024-01-14T07:48:43.686Z,38.35
2024-01-14T07:51:11.581Z,38.70
2024-01-14T07:53:38.828Z,38.46
2024-01-14T07:56:06.271Z,38.42
2024-01-14T07:58:34.295Z,37.36
2024-01-14T08:01:03.709Z,36.91
2024-01-14T08:03:32.470Z,37.28
2024-01-14T08:06:00.932Z,37.62
2024-01-14T08:08:28.566Z,38.38
2024-01-14T08:10:56.098Z,37.82
2024-01-14T08:13:23.338Z,38.25
2024-01-14T08:15:57.923Z,38.46
2024-01-14T08:18:30.941Z,38.47
2024-01-14T08:20:59.093Z,37.81
2024-01-14T08:23:26.368Z,37.68
2024-01-14T08:25:53.864Z,37.85
2024-01-14T08:28:21.735Z,38.16
2024-01-14T08:30:50.456Z,37.72
2024-01-14T08:33:18.353Z,38.30
2024-01-14T08:35:46.286Z,37.60
2024-01-14T08:38:13.561Z,38.23
2024-01-14T08:40:41.081Z,37.80
2024-01-14T08:43:08.347Z,38.54
2024-01-14T08:45:35.587Z,38.54
2024-01-14T08:48:03.295Z,38.50
2024-01-14T08:50:30.597Z,37.85
2024-01-14T08:52:57.779Z,38.25
2024-01-14T08:55:25.350Z,37.87
2024-01-14T08:57:52.579Z,38.51
2024-01-14T09:00:20.130Z,53.88
2024-01-14T09:02:47.867Z,54.70
2024-01-14T09:05:15.159Z,54.83
2024-01-14T09:07:43.042Z,46.84
2024-01-14T09:10:11.703Z,52.72
2024-01-14T09:12:39.005Z,50.10
2024-01-14T09:15:06.666Z,51.19
2024-01-14T09:17:36.820Z,51.73
2024-01-14T09:20:06.306Z,53.78
2024-01-14T09:22:34.062Z,54.17
2024-01-14T09:25:01.227Z,52.34
2024-01-14T09:27:31.717Z,50.49
2024-01-14T09:29:59.815Z,47.60
2024-01-14T09:32:27.407Z,49.65
2024-01-14T09:34:55.543Z,49.51
2024-01-14T09:37:23.171Z,48.90
2024-01-14T09:39:50.370Z,49.29
2024-01-14T09:42:20.458Z,46.77
2024-01-14T09:44:48.233Z,46.93
2024-01-14T09:47:15.873Z,48.10
2024-01-14T09:49:43.307Z,45.89
2024-01-14T09:52:10.977Z,46.17
2024-01-14T09:54:38.211Z,41.87
2024-01-14T09:57:07.378Z,42.47
2024-01-14T09:59:34.946Z,41.36
2024-01-14T10:02:02.570Z,40.59
2024-01-14T10:04:31.190Z,42.79
2024-01-14T10:06:58.681Z,44.15
2024-01-14T10:09:26.362Z,43.32
2024-01-14T10:11:53.970Z,45.94
2024-01-14T10:14:25.497Z,45.88
2024-01-14T10:16:55.394Z,38.13
2024-01-14T10:19:23.640Z,41.92
2024-01-14T10:22:13.611Z,37.24
2024-01-14T10:24:42.732Z,36.63
2024-01-14T10:27:12.051Z,35.92
2024-01-14T10:29:40.580Z,35.82
2024-01-14T10:32:08.954Z,35.68
2024-01-14T10:34:36.462Z,34.42
2024-01-14T10:37:04.456Z,34.32
2024-01-14T10:39:32.548Z,34.57
2024-01-14T10:42:02.848Z,35.01
2024-01-14T10:44:31.090Z,34.56
2024-01-14T10:47:00.286Z,35.39
2024-01-14T10:49:28.356Z,34.97
2024-01-14T10:52:03.168Z,35.13
2024-01-14T10:54:33.701Z,33.35
2024-01-14T10:57:05.064Z,34.38
2024-01-14T10:59:32.569Z,35.14
2024-01-14T11:02:00.035Z,35.07
2024-01-14T11:04:27.969Z,35.30
2024-01-14T11:06:56.785Z,35.68
2024-01-14T11:09:24.337Z,35.05
2024-01-14T11:11:53.048Z,35.20
2024-01-14T11:14:22.478Z,35.08
2024-01-14T11:17:09.913Z,34.17
2024-01-14T11:19:38.611Z,34.64
2024-01-14T11:22:33.225Z,34.51
2024-01-14T11:25:05.472Z,34.47
2024-01-14T11:27:33.761Z,34.31
2024-01-14T11:30:01.513Z,34.62
2024-01-14T11:32:29.427Z,34.73
2024-01-14T11:34:59.355Z,34.47
2024-01-14T11:37:30.612Z,34.43
2024-01-14T11:40:07.311Z,33.47
2024-01-14T11:42:35.039Z,34.22
2024-01-14T11:45:02.847Z,33.59
2024-01-14T11:47:36.560Z,32.85
2024-01-14T11:50:04.222Z,32.68
2024-01-14T11:52:31.487Z,33.13
2024-01-14T11:54:58.770Z,33.49
2024-01-14T11:57:26.262Z,33.64
2024-01-14T11:59:55.683Z,34.12
2024-01-14T12:02:23.051Z,34.82
2024-01-14T12:04:57.963Z,34.07
2024-01-14T12:07:31.938Z,33.18
2024-01-14T12:09:59.537Z,32.44
2024-01-14T12:12:27.817Z,33.71
2024-01-14T12:14:55.450Z,32.08
2024-01-14T12:17:23.112Z,32.76
2024-01-14T12:19:57.979Z,32.44
2024-01-14T12:22:25.800Z,30.97
2024-01-14T12:24:53.023Z,31.43
2024-01-14T12:27:20.592Z,31.25
2024-01-14T12:29:48.067Z,30.66
2024-01-14T12:32:16.541Z,31.15
2024-01-14T12:34:45.144Z,30.42
2024-01-14T12:37:14.010Z,30.29
2024-01-14T12:39:41.907Z,30.37
2024-01-14T12:42:09.922Z,31.64
2024-01-14T12:44:48.278Z,30.61
2024-01-14T12:47:15.774Z,31.16
2024-01-14T12:49:45.132Z,31.02
2024-01-14T12:52:12.578Z,30.44
2024-01-14T12:54:39.789Z,30.96
2024-01-14T12:57:17.137Z,30.20
2024-01-14T12:59:50.895Z,30.59
2024-01-14T13:02:19.146Z,30.48
2024-01-14T13:04:47.166Z,30.46
2024-01-14T13:07:14.960Z,30.15
2024-01-14T13:09:43.172Z,28.70
2024-01-14T13:12:10.779Z,30.08
2024-01-14T13:14:38.010Z,30.53
2024-01-14T13:17:05.498Z,29.44
2024-01-14T13:19:32.872Z,29.60
2024-01-14T13:22:00.234Z,29.01
2024-01-14T13:24:30.444Z,30.25
2024-01-14T13:26:58.959Z,29.64
2024-01-14T13:29:26.344Z,29.98
2024-01-14T13:31:54.050Z,30.69
2024-01-14T13:34:21.631Z,29.93
2024-01-14T13:36:50.699Z,30.67
2024-01-14T13:39:18.771Z,30.56
2024-01-14T13:41:50.034Z,28.96
2024-01-14T13:44:18.968Z,29.12
2024-01-14T13:46:49.131Z,30.08
2024-01-14T13:49:20.067Z,29.77
2024-01-14T13:51:47.843Z,30.17
2024-01-14T13:54:17.008Z,30.04
2024-01-14T13:56:50.310Z,29.94
2024-01-14T13:59:17.969Z,29.87
2024-01-14T14:01:45.564Z,29.82
2024-01-14T14:04:13.197Z,30.05
2024-01-14T14:06:40.848Z,30.39
2024-01-14T14:09:09.582Z,30.71
2024-01-14T14:11:38.493Z,30.44
2024-01-14T14:14:07.118Z,30.85
2024-01-14T14:16:40.306Z,30.68
2024-01-14T14:19:12.219Z,30.39
2024-01-14T14:24:11.097Z,31.06
2024-01-14T14:26:38.329Z,30.76
2024-01-14T14:29:06.351Z,30.48
2024-01-14T14:31:43.897Z,30.21
2024-01-14T14:34:16.645Z,30.07
2024-01-14T14:36:45.465Z,30.58
2024-01-14T14:39:13.638Z,30.59
2024-01-14T14:41:41.181Z,30.49
2024-01-14T14:44:11.044Z,30.58
2024-01-14T14:46:38.833Z,30.19
2024-01-14T14:49:08.495Z,30.36
2024-01-14T14:51:40.861Z,30.41
2024-01-14T14:54:10.405Z,30.78
2024-01-14T14:56:39.624Z,30.35
2024-01-14T14:59:06.980Z,30.44
2024-01-14T15:01:41.904Z,30.76
2024-01-14T15:04:24.190Z,30.91
2024-01-14T15:06:51.792Z,31.12
2024-01-14T15:09:19.471Z,31.07
2024-01-14T15:11:46.761Z,30.88
2024-01-14T15:14:13.993Z,31.15
2024-01-14T15:16:43.146Z,31.18
2024-01-14T15:19:10.916Z,31.18
2024-01-14T15:21:38.344Z,31.47
2024-01-14T15:24:06.309Z,31.70
2024-01-14T15:26:33.758Z,31.74
2024-01-14T15:29:01.022Z,31.94
2024-01-14T15:31:28.689Z,31.86
2024-01-14T15:33:56.969Z,32.13
2024-01-14T15:36:24.788Z,31.49
2024-01-14T15:38:52.746Z,32.35
2024-01-14T15:41:20.094Z,32.70
2024-01-14T15:43:48.541Z,32.44
2024-01-14T15:46:16.295Z,32.63
2024-01-14T15:48:48.029Z,32.61
2024-01-14T15:51:16.009Z,32.90
2024-01-14T15:53:43.740Z,32.91
2024-01-14T15:56:12.270Z,33.01
2024-01-14T15:58:41.529Z,33.07
2024-01-14T16:01:12.016Z,32.69
2024-01-14T16:03:46.390Z,32.31
2024-01-14T16:06:15.325Z,33.05
2024-01-14T16:08:46.733Z,33.22
2024-01-14T16:11:14.672Z,33.59
2024-01-14T16:13:41.858Z,32.94
2024-01-14T16:16:09.365Z,33.78
2024-01-14T16:18:36.855Z,33.90
2024-01-14T16:21:07.046Z,33.63
2024-01-14T16:23:37.976Z,33.99
2024-01-14T16:26:06.474Z,34.18
2024-01-14T16:28:33.781Z,33.11
2024-01-14T16:31:09.933Z,33.24
2024-01-14T16:33:45.928Z,33.97
2024-01-14T16:36:15.207Z,33.63
2024-01-14T16:38:42.849Z,34.09
2024-01-14T16:41:10.153Z,34.19
2024-01-14T16:43:37.918Z,34.54
2024-01-14T16:46:06.726Z,34.11
2024-01-14T16:48:35.045Z,34.33
2024-01-14T16:51:08.803Z,34.54
2024-01-14T16:53:41.171Z,34.38
2024-01-14T16:56:13.880Z,34.28
2024-01-14T16:58:43.351Z,34.71
2024-01-14T17:01:16.268Z,35.25
2024-01-14T17:03:47.223Z,35.35
2024-01-14T17:06:16.800Z,35.35
2024-01-14T17:08:49.217Z,35.74
2024-01-14T17:11:20.828Z,35.44
2024-01-14T17:13:48.409Z,35.26
2024-01-14T17:16:21.356Z,35.72
2024-01-14T17:18:49.933Z,35.85
2024-01-14T17:21:18.666Z,35.96
2024-01-14T17:23:46.645Z,35.56
2024-01-14T17:26:14.290Z,35.19
2024-01-14T17:28:44.454Z,34.91
2024-01-14T17:31:13.289Z,35.38
2024-01-14T17:33:42.321Z,35.27
2024-01-14T17:36:13.691Z,35.44
2024-01-14T17:38:42.206Z,36.05
2024-01-14T17:41:10.777Z,36.37
2024-01-14T17:43:38.711Z,36.37
2024-01-14T17:46:08.986Z,36.43
2024-01-14T17:48:38.594Z,36.24
2024-01-14T17:51:06.347Z,58.15
2024-01-14T17:53:33.608Z,59.38
2024-01-14T17:56:01.210Z,52.76
2024-01-14T17:58:29.612Z,49.37
2024-01-14T18:00:57.187Z,46.69
2024-01-14T18:03:25.127Z,45.08
2024-01-14T18:05:52.889Z,42.01
2024-01-14T18:08:20.653Z,38.44
2024-01-14T18:10:50.212Z,37.92
2024-01-14T18:13:17.960Z,37.26
2024-01-14T18:15:46.635Z,35.51
2024-01-14T18:18:15.929Z,36.08
2024-01-14T18:20:43.623Z,36.77
2024-01-14T18:23:13.554Z,36.92
2024-01-14T18:25:43.837Z,37.53
2024-01-14T18:28:12.051Z,37.16
2024-01-14T18:30:39.674Z,37.34
2024-01-14T18:33:11.812Z,37.17
2024-01-14T18:35:46.443Z,37.70
2024-01-14T18:38:15.665Z,37.74
2024-01-14T18:40:43.627Z,38.27
2024-01-14T18:43:12.007Z,37.26
2024-01-14T18:45:40.050Z,37.25
2024-01-14T18:48:07.953Z,37.32
2024-01-14T18:50:36.053Z,37.26
2024-01-14T18:53:06.051Z,36.79
2024-01-14T18:55:39.229Z,37.89
2024-01-14T18:58:07.296Z,37.36
2024-01-14T19:00:35.543Z,37.36
2024-01-14T19:03:03.702Z,37.14
2024-01-14T19:05:35.928Z,37.89
2024-01-14T19:08:03.601Z,37.66
2024-01-14T19:10:35.808Z,37.96
2024-01-14T19:13:03.538Z,37.63
2024-01-14T19:15:31.446Z,38.00
2024-01-14T19:17:58.969Z,38.12
2024-01-14T19:20:29.196Z,37.88
2024-01-14T19:22:57.203Z,37.95
2024-01-14T19:25:25.076Z,37.30
2024-01-14T19:27:52.613Z,37.49
2024-01-14T19:30:21.082Z,37.17
2024-01-14T19:32:48.973Z,37.25
2024-01-14T19:35:16.808Z,37.70
2024-01-14T19:37:47.160Z,37.51
2024-01-14T19:40:15.791Z,37.24
2024-01-14T19:42:44.454Z,37.77
2024-01-14T19:45:13.239Z,37.12
2024-01-14T19:47:41.205Z,38.42
2024-01-14T19:50:09.272Z,38.73
2024-01-14T19:52:38.596Z,38.46
2024-01-14T19:55:07.783Z,38.63
2024-01-14T19:57:38.560Z,38.47
2024-01-14T20:00:10.541Z,37.76
2024-01-14T20:02:41.887Z,37.27
2024-01-14T20:05:11.265Z,38.13
2024-01-14T20:07:41.254Z,37.96
2024-01-14T20:10:09.854Z,37.86
2024-01-14T20:12:37.980Z,37.62
2024-01-14T20:15:06.058Z,37.67
2024-01-14T20:17:34.006Z,37.61
2024-01-14T20:20:02.202Z,37.94
2024-01-14T20:22:30.323Z,37.44
2024-01-14T20:25:00.030Z,37.64
2024-01-14T20:27:27.680Z,37.62
2024-01-14T20:29:55.711Z,37.60
2024-01-14T20:32:24.279Z,37.81
2024-01-14T20:34:52.260Z,37.70
2024-01-14T20:37:21.252Z,37.72
2024-01-14T20:39:49.158Z,37.79
2024-01-14T20:42:17.164Z,37.31
2024-01-14T20:44:45.930Z,37.49
2024-01-14T20:47:13.262Z,36.78
2024-01-14T20:49:41.931Z,36.61
2024-01-14T20:52:09.747Z,36.92
2024-01-14T20:54:37.511Z,36.64
2024-01-14T20:57:09.500Z,36.06
2024-01-14T20:59:37.212Z,36.53
2024-01-14T21:02:05.955Z,37.94
2024-01-14T21:04:33.386Z,38.49
2024-01-14T21:07:01.013Z,38.67
2024-01-14T21:09:28.335Z,38.66
2024-01-14T21:11:55.582Z,38.70
2024-01-14T21:14:23.402Z,38.99
2024-01-14T21:16:50.601Z,39.27
2024-01-14T21:19:18.011Z,38.89
2024-01-14T21:21:45.907Z,38.75
2024-01-14T21:24:13.622Z,38.34
2024-01-14T21:26:41.557Z,38.32
2024-01-14T21:29:10.299Z,38.80
2024-01-14T21:31:37.639Z,38.53
2024-01-14T21:34:05.043Z,38.56
2024-01-14T21:36:35.290Z,39.15
2024-01-14T21:39:03.093Z,39.27
2024-01-14T21:41:30.291Z,38.47
2024-01-14T21:43:58.367Z,38.51
2024-01-14T21:46:25.578Z,38.64
2024-01-14T21:48:52.929Z,38.28
2024-01-14T21:51:20.489Z,37.93
2024-01-14T21:53:47.805Z,38.35
2024-01-14T21:56:15.223Z,38.62
2024-01-14T21:58:42.656Z,38.55
2024-01-14T22:01:10.368Z,38.36
2024-01-14T22:03:38.389Z,38.52
2024-01-14T22:06:05.846Z,39.15
2024-01-14T22:08:34.341Z,38.82
2024-01-14T22:11:01.821Z,38.91
2024-01-14T22:13:29.375Z,38.43
2024-01-14T22:15:56.684Z,38.11
2024-01-14T22:18:24.438Z,38.28
2024-01-14T22:20:51.735Z,37.70
2024-01-14T22:23:18.939Z,37.53
2024-01-14T22:25:46.404Z,38.33
2024-01-14T22:28:16.774Z,37.69
2024-01-14T22:30:46.779Z,37.78
2024-01-14T22:33:14.587Z,38.32
2024-01-14T22:35:42.138Z,38.40
2024-01-14T22:38:09.419Z,38.07
2024-01-14T22:40:36.895Z,38.04
2024-01-14T22:43:04.762Z,37.95
2024-01-14T22:45:33.414Z,38.02
2024-01-14T22:48:01.103Z,38.02
2024-01-14T22:50:28.411Z,38.61
2024-01-14T22:52:55.576Z,38.64
2024-01-14T22:55:23.033Z,38.78
2024-01-14T22:57:50.355Z,38.90
2024-01-14T23:00:26.449Z,38.91
2024-01-14T23:02:55.584Z,38.71
2024-01-14T23:05:23.046Z,39.10
2024-01-14T23:07:50.309Z,38.68
2024-01-14T23:10:17.850Z,38.88
2024-01-14T23:12:45.109Z,38.75
2024-01-14T23:15:12.576Z,39.27
2024-01-14T23:17:43.104Z,39.25
2024-01-14T23:20:10.653Z,39.26
2024-01-14T23:22:37.837Z,39.35
2024-01-14T23:25:05.689Z,39.18
2024-01-14T23:27:34.240Z,39.37
2024-01-14T23:30:01.611Z,38.40
2024-01-14T23:32:30.946Z,38.82
2024-01-14T23:34:58.455Z,38.62
2024-01-14T23:37:25.895Z,38.84
2024-01-14T23:39:53.457Z,38.89
2024-01-14T23:42:21.010Z,38.80
2024-01-14T23:44:48.219Z,38.46
2024-01-14T23:47:15.695Z,38.92
2024-01-14T23:49:45.218Z,38.86
2024-01-14T23:52:12.720Z,39.25
2024-01-14T23:54:40.267Z,39.09
2024-01-14T23:57:15.213Z,39.52
2024-01-14T23:59:44.386Z,39.31
